createdAt,value
2019-03-13T00:00:41.513Z,8.30
2019-03-13T00:03:11.566Z,8.20
2019-03-13T00:05:41.189Z,8.20
2019-03-13T00:08:10.882Z,8.20
2019-03-13T00:10:41.469Z,8.20
2019-03-13T00:13:11.098Z,8.30
2019-03-13T00:15:40.718Z,8.30
2019-03-13T00:18:10.349Z,8.30
2019-03-13T00:20:39.966Z,8.20
2019-03-13T00:23:09.614Z,8.30
2019-03-13T00:25:39.237Z,8.20
2019-03-13T00:28:08.869Z,8.10
2019-03-13T00:30:38.493Z,8.10
2019-03-13T00:33:08.113Z,8.20
2019-03-13T00:35:37.737Z,8.30
2019-03-13T00:38:07.358Z,8.30
2019-03-13T00:40:37.057Z,8.30
2019-03-13T00:43:06.675Z,8.30
2019-03-13T00:45:36.302Z,8.40
2019-03-13T00:48:05.917Z,8.50
2019-03-13T00:50:35.548Z,8.50
2019-03-13T00:53:05.157Z,8.50
2019-03-13T00:55:35.048Z,8.30
2019-03-13T00:58:04.661Z,8.20
2019-03-13T01:00:35.925Z,8.00
2019-03-13T01:03:07.185Z,8.10
2019-03-13T01:05:44.514Z,8.00
2019-03-13T01:08:14.129Z,8.00
2019-03-13T01:10:43.826Z,8.10
2019-03-13T01:13:13.496Z,8.10
2019-03-13T01:15:43.122Z,8.00
2019-03-13T01:18:12.744Z,7.90
2019-03-13T01:20:42.365Z,8.00
2019-03-13T01:23:11.981Z,8.00
2019-03-13T01:25:42.514Z,8.00
2019-03-13T01:28:12.134Z,7.90
2019-03-13T01:30:46.682Z,7.90
2019-03-13T01:33:17.866Z,7.80
2019-03-13T01:38:34.461Z,7.80
2019-03-13T01:41:05.054Z,7.60
2019-03-13T01:43:35.645Z,7.60
2019-03-13T01:46:05.272Z,7.40
2019-03-13T01:48:34.899Z,7.40
2019-03-13T01:51:04.518Z,7.40
2019-03-13T01:53:34.133Z,7.40
2019-03-13T01:56:03.757Z,7.40
2019-03-13T01:58:33.376Z,7.40
2019-03-13T02:01:03.005Z,7.40
2019-03-13T02:03:32.989Z,7.40
2019-03-13T02:06:02.614Z,7.40
2019-03-13T02:08:32.242Z,7.50
2019-03-13T02:11:01.866Z,7.50
2019-03-13T02:13:31.478Z,7.60
2019-03-13T02:16:01.177Z,7.50
2019-03-13T02:18:30.797Z,7.50
2019-03-13T02:21:01.389Z,7.60
2019-03-13T02:23:31.011Z,7.50
2019-03-13T02:26:00.633Z,7.50
2019-03-13T02:28:30.249Z,7.50
2019-03-13T02:30:59.873Z,7.50
2019-03-13T02:33:29.497Z,7.50
2019-03-13T02:35:59.119Z,7.50
2019-03-13T02:38:28.734Z,7.40
2019-03-13T02:40:58.363Z,7.30
2019-03-13T02:43:27.978Z,7.20
2019-03-13T02:46:00.470Z,7.10
2019-03-13T02:48:30.093Z,7.00
2019-03-13T02:50:59.718Z,6.80
2019-03-13T02:53:29.363Z,6.70
2019-03-13T02:55:59.411Z,6.60
2019-03-13T02:58:30.133Z,6.40
2019-03-13T03:01:10.489Z,6.20
2019-03-13T03:03:41.744Z,6.10
2019-03-13T03:06:11.376Z,6.00
2019-03-13T03:08:40.981Z,5.90
2019-03-13T03:11:10.601Z,5.90
2019-03-13T03:13:40.318Z,5.80
2019-03-13T03:16:09.913Z,5.70
2019-03-13T03:18:39.526Z,5.60
2019-03-13T03:21:09.146Z,5.50
2019-03-13T03:23:38.753Z,5.40
2019-03-13T03:26:09.345Z,5.30
2019-03-13T03:28:38.956Z,5.20
2019-03-13T03:31:08.590Z,5.20
2019-03-13T06:50:23.721Z,5.50
2019-03-13T06:55:22.580Z,5.60
2019-03-13T07:19:01.189Z,6.10
2019-03-13T07:24:12.747Z,6.20
2019-03-13T07:29:20.713Z,6.40
2019-03-13T07:44:54.157Z,6.90
2019-03-13T09:31:52.762Z,9.00
2019-03-13T09:44:52.345Z,8.40
2019-03-13T09:55:30.177Z,8.60
2019-03-13T09:58:07.164Z,8.70
2019-03-13T10:03:34.793Z,9.50
2019-03-13T10:06:08.996Z,9.20
2019-03-13T10:08:46.081Z,9.10
2019-03-13T10:11:19.780Z,9.10
2019-03-13T10:13:51.036Z,9.50
2019-03-13T10:16:22.309Z,9.60
2019-03-13T10:19:02.618Z,9.20
2019-03-13T10:21:39.621Z,10.00
2019-03-13T10:24:10.883Z,9.70
2019-03-13T10:26:45.155Z,9.20
2019-03-13T10:29:16.516Z,9.50
2019-03-13T10:31:53.716Z,9.50
2019-03-13T10:34:24.993Z,9.80
2019-03-13T10:36:59.160Z,9.90
2019-03-13T10:39:33.157Z,9.80
2019-03-13T10:42:04.409Z,9.90
2019-03-13T10:44:35.686Z,10.10
2019-03-13T10:47:15.925Z,9.80
2019-03-13T10:49:47.238Z,9.70
2019-03-13T10:52:30.661Z,10.00
2019-03-13T10:55:01.932Z,10.00
2019-03-13T10:57:34.365Z,10.10
2019-03-13T11:00:08.932Z,10.00
2019-03-13T11:02:41.569Z,10.50
2019-03-13T11:05:18.509Z,10.60
2019-03-13T11:07:55.734Z,10.60
2019-03-13T11:10:35.757Z,10.20
2019-03-13T11:13:12.972Z,10.70
2019-03-13T11:15:47.163Z,11.00
2019-03-13T11:18:34.657Z,11.20
2019-03-13T11:21:24.383Z,10.80
2019-03-13T11:24:04.573Z,10.30
2019-03-13T11:26:35.847Z,10.80
2019-03-13T11:29:09.981Z,10.30
2019-03-13T11:31:50.233Z,10.20
2019-03-13T11:34:21.549Z,10.00
2019-03-13T11:36:58.766Z,9.90
2019-03-13T11:39:45.345Z,10.00
2019-03-13T11:42:32.857Z,10.30
2019-03-13T11:45:04.122Z,10.20
2019-03-13T11:47:42.397Z,10.00
2019-03-13T11:50:22.532Z,10.00
2019-03-13T11:53:10.022Z,9.80
2019-03-13T11:55:45.038Z,9.80
2019-03-13T11:58:31.889Z,10.10
2019-03-13T12:01:03.157Z,10.00
2019-03-13T12:03:49.388Z,9.70
2019-03-13T12:06:37.301Z,9.70
2019-03-13T12:09:11.220Z,9.90
2019-03-13T12:11:44.093Z,10.10
2019-03-13T12:14:30.302Z,9.80
2019-03-13T12:17:01.561Z,9.60
2019-03-13T12:19:38.461Z,9.60
2019-03-13T12:22:15.804Z,9.80
2019-03-13T12:24:59.036Z,9.70
2019-03-13T12:27:42.340Z,9.80
2019-03-13T12:30:15.440Z,10.00
2019-03-13T12:33:03.036Z,9.80
2019-03-13T12:35:43.674Z,9.80
2019-03-13T12:38:17.876Z,9.80
2019-03-13T12:40:57.909Z,9.60
2019-03-13T12:43:46.961Z,9.70
2019-03-13T12:46:34.541Z,9.60
2019-03-13T12:49:05.973Z,9.40
2019-03-13T12:51:37.237Z,9.30
2019-03-13T12:54:12.268Z,9.30
2019-03-13T12:56:43.604Z,9.10
2019-03-13T12:59:17.598Z,9.20
2019-03-13T13:02:05.322Z,9.20
2019-03-13T13:04:48.536Z,9.10
2019-03-13T13:07:19.796Z,9.00
2019-03-13T13:10:00.513Z,9.00
2019-03-13T13:12:43.698Z,9.00
2019-03-13T13:15:31.259Z,8.90
2019-03-13T13:18:02.517Z,9.00
2019-03-13T13:20:32.135Z,9.00
2019-03-13T13:23:01.762Z,9.00
2019-03-13T13:25:31.373Z,9.00
2019-03-13T13:28:00.999Z,8.90
2019-03-13T13:30:30.612Z,9.00
2019-03-13T13:33:00.238Z,9.00
2019-03-13T13:35:29.852Z,9.00
2019-03-13T13:37:59.483Z,9.10
2019-03-13T13:40:29.405Z,9.10
2019-03-13T13:42:59.026Z,9.10
2019-03-13T13:45:33.306Z,9.10
2019-03-13T13:48:03.197Z,9.20
2019-03-13T13:50:32.880Z,9.40
2019-03-13T13:53:02.508Z,9.40
2019-03-13T13:55:32.129Z,9.40
2019-03-13T13:58:01.751Z,9.40
2019-03-13T14:00:31.377Z,9.40
2019-03-13T14:03:01.413Z,9.50
2019-03-13T14:05:31.032Z,9.30
2019-03-13T14:08:00.652Z,9.30
2019-03-13T14:10:30.269Z,9.20
2019-03-13T14:12:59.881Z,9.20
2019-03-13T14:15:29.513Z,9.20
2019-03-13T14:18:00.399Z,9.30
2019-03-13T14:20:30.293Z,9.50
2019-03-13T14:22:59.936Z,9.50
2019-03-13T14:25:29.557Z,9.60
2019-03-13T14:27:59.172Z,9.50
2019-03-13T14:30:28.796Z,9.50
2019-03-13T14:32:58.413Z,9.40
2019-03-13T14:35:28.035Z,9.40
2019-03-13T14:37:57.648Z,9.30
2019-03-13T14:40:27.273Z,9.20
2019-03-13T14:42:56.889Z,9.10
2019-03-13T14:45:26.513Z,9.10
2019-03-13T14:47:56.128Z,9.10
2019-03-13T14:50:25.759Z,9.10
2019-03-13T14:52:55.369Z,9.00
2019-03-13T14:55:24.988Z,9.00
2019-03-13T14:57:54.605Z,9.00
2019-03-13T15:00:24.969Z,9.00
2019-03-13T15:02:54.580Z,9.00
2019-03-13T15:05:24.509Z,9.00
2019-03-13T15:07:54.122Z,9.00
2019-03-13T15:10:23.761Z,9.10
2019-03-13T15:12:53.377Z,9.10
2019-03-13T15:15:23.744Z,9.10
2019-03-13T15:17:53.744Z,9.20
2019-03-13T15:20:25.558Z,9.20
2019-03-13T15:22:56.147Z,9.10
2019-03-13T15:25:25.770Z,9.10
2019-03-13T15:27:55.386Z,9.00
2019-03-13T15:30:28.276Z,9.10
2019-03-13T15:32:57.895Z,9.00
2019-03-13T15:35:28.552Z,9.00
2019-03-13T15:37:58.165Z,8.90
2019-03-13T15:40:27.792Z,8.90
2019-03-13T15:42:57.405Z,8.90
2019-03-13T15:45:29.368Z,8.90
2019-03-13T15:47:58.987Z,8.90
2019-03-13T15:50:28.609Z,8.90
2019-03-13T15:52:58.220Z,8.90
2019-03-13T15:55:27.840Z,8.90
2019-03-13T15:57:57.456Z,8.90
2019-03-13T16:00:30.874Z,9.00
2019-03-13T16:03:00.502Z,9.00
2019-03-13T16:05:30.110Z,9.00
2019-03-13T16:07:59.721Z,9.00
2019-03-13T16:10:29.340Z,9.00
2019-03-13T16:13:00.769Z,8.90
2019-03-13T16:15:34.861Z,8.80
2019-03-13T16:18:05.073Z,8.80
2019-03-13T16:20:34.873Z,8.80
2019-03-13T16:23:04.494Z,8.70
2019-03-13T16:25:34.191Z,8.70
2019-03-13T16:28:04.869Z,8.70
2019-03-13T16:30:45.313Z,8.70
2019-03-13T16:33:15.036Z,8.70
2019-03-13T16:35:44.657Z,8.70
2019-03-13T16:38:14.275Z,8.70
2019-03-13T16:40:43.896Z,8.70
2019-03-13T16:43:13.508Z,8.70
2019-03-13T16:45:43.136Z,8.70
2019-03-13T16:48:12.749Z,8.80
2019-03-13T16:50:42.377Z,8.80
2019-03-13T16:53:12.001Z,8.60
2019-03-13T16:55:41.619Z,8.60
2019-03-13T16:58:11.230Z,8.50
2019-03-13T17:00:40.857Z,8.50
2019-03-13T17:03:10.466Z,8.40
2019-03-13T17:05:40.142Z,8.30
2019-03-13T17:08:09.757Z,8.30
2019-03-13T17:10:39.453Z,8.20
2019-03-13T17:13:09.069Z,8.20
2019-03-13T17:15:38.977Z,8.20
2019-03-13T17:18:08.594Z,8.20
2019-03-13T17:20:40.749Z,8.20
2019-03-13T17:23:10.489Z,8.20
2019-03-13T17:25:40.116Z,8.10
2019-03-13T17:28:09.808Z,8.10
2019-03-13T17:30:39.532Z,8.00
2019-03-13T17:33:09.325Z,8.00
2019-03-13T17:35:39.924Z,8.00
2019-03-13T17:38:09.648Z,7.90
2019-03-13T17:40:39.344Z,7.90
2019-03-13T17:43:09.284Z,7.80
2019-03-13T17:45:38.928Z,7.90
2019-03-13T17:48:08.910Z,7.90
2019-03-13T17:50:38.536Z,7.90
2019-03-13T17:53:08.157Z,7.90
2019-03-13T17:55:37.776Z,7.90
2019-03-13T17:58:07.464Z,7.80
2019-03-13T18:00:46.519Z,7.80
2019-03-13T18:03:16.362Z,7.80
2019-03-13T18:05:46.309Z,7.70
2019-03-13T18:08:16.013Z,7.70
2019-03-13T18:10:45.619Z,7.70
2019-03-13T18:13:15.287Z,7.80
2019-03-13T18:15:44.897Z,7.80
2019-03-13T18:18:14.865Z,7.80
2019-03-13T18:20:44.487Z,7.80
2019-03-13T18:23:14.110Z,7.70
2019-03-13T18:25:43.716Z,7.70
2019-03-13T18:28:13.346Z,7.70
2019-03-13T18:30:42.956Z,7.60
2019-03-13T18:33:12.577Z,7.60
2019-03-13T18:35:42.189Z,7.60
2019-03-13T18:38:11.813Z,7.60
2019-03-13T18:40:41.524Z,7.60
2019-03-13T18:43:11.303Z,7.50
2019-03-13T18:45:40.913Z,7.40
2019-03-13T18:48:10.537Z,7.20
2019-03-13T18:50:40.155Z,7.10
2019-03-13T18:53:09.777Z,7.00
2019-03-13T18:55:40.463Z,6.90
2019-03-13T18:58:13.982Z,6.80
2019-03-13T19:00:42.466Z,6.60
2019-03-13T19:03:12.429Z,6.50
2019-03-13T19:05:42.049Z,6.40
2019-03-13T19:08:11.672Z,6.40
2019-03-13T19:10:41.582Z,6.40
2019-03-13T19:13:11.216Z,6.30
2019-03-13T19:15:40.830Z,6.40
2019-03-13T19:18:10.449Z,6.40
2019-03-13T19:20:40.141Z,6.30
2019-03-13T19:23:09.756Z,6.40
2019-03-13T19:25:39.369Z,6.40
2019-03-13T19:28:08.994Z,6.50
2019-03-13T19:30:38.604Z,6.60
2019-03-13T19:33:08.229Z,6.70
2019-03-13T19:35:37.849Z,6.70
2019-03-13T19:38:12.159Z,6.70
2019-03-13T19:40:41.772Z,6.70
2019-03-13T19:43:11.401Z,6.70
2019-03-13T19:45:49.985Z,6.60
2019-03-13T19:48:19.606Z,6.40
2019-03-13T19:50:49.284Z,6.40
2019-03-13T19:53:18.908Z,6.40
2019-03-13T19:55:48.526Z,6.40
2019-03-13T19:58:19.214Z,6.40
2019-03-13T20:00:49.004Z,6.40
2019-03-13T20:03:19.096Z,6.40
2019-03-13T20:05:48.714Z,6.40
2019-03-13T20:08:18.338Z,6.40
2019-03-13T20:10:47.948Z,6.40
2019-03-13T20:13:17.697Z,6.30
2019-03-13T20:15:47.422Z,6.40
2019-03-13T20:18:17.097Z,6.50
2019-03-13T20:20:46.713Z,6.50
2019-03-13T20:23:17.304Z,6.50
2019-03-13T20:25:46.916Z,6.40
2019-03-13T20:28:16.536Z,6.40
2019-03-13T20:30:46.149Z,6.40
2019-03-13T20:33:15.772Z,6.40
2019-03-13T20:35:45.385Z,6.30
2019-03-13T20:38:15.021Z,6.20
2019-03-13T20:40:44.631Z,6.10
2019-03-13T20:43:14.256Z,6.10
2019-03-13T20:45:43.872Z,6.10
2019-03-13T20:48:13.569Z,6.00
2019-03-13T20:50:43.181Z,6.10
2019-03-13T20:53:12.800Z,6.10
2019-03-13T20:55:42.413Z,6.20
2019-03-13T20:58:12.032Z,6.20
2019-03-13T21:00:41.645Z,6.20
2019-03-13T21:03:11.341Z,6.20
2019-03-13T21:05:41.001Z,6.20
2019-03-13T21:08:10.624Z,6.30
2019-03-13T21:10:40.232Z,6.30
2019-03-13T21:13:09.856Z,6.30
2019-03-13T21:15:39.472Z,6.30
2019-03-13T21:18:09.098Z,6.30
2019-03-13T21:20:38.712Z,6.30
2019-03-13T21:23:08.338Z,6.20
2019-03-13T21:25:37.948Z,6.20
2019-03-13T21:28:08.746Z,6.20
2019-03-13T21:30:38.352Z,6.20
2019-03-13T21:33:08.084Z,6.20
2019-03-13T21:35:37.696Z,6.20
2019-03-13T21:38:07.317Z,6.20
2019-03-13T21:40:37.241Z,6.20
2019-03-13T21:43:07.836Z,6.10
2019-03-13T21:45:41.533Z,6.10
2019-03-13T21:48:08.769Z,6.10
2019-03-13T21:50:38.386Z,6.10
2019-03-13T21:53:08.008Z,6.10
2019-03-13T21:55:37.625Z,6.10
2019-03-13T21:58:08.132Z,6.10
2019-03-13T22:00:37.755Z,6.10
2019-03-13T22:03:07.364Z,6.10
2019-03-13T22:05:36.977Z,6.00
2019-03-13T22:08:06.601Z,6.00
2019-03-13T22:10:36.215Z,6.00
2019-03-13T22:13:06.904Z,5.90
2019-03-13T22:15:36.517Z,6.00
2019-03-13T22:18:06.141Z,5.90
2019-03-13T22:20:35.753Z,6.00
2019-03-13T22:23:05.386Z,6.00
2019-03-13T22:25:35.000Z,6.00
2019-03-13T22:28:04.613Z,6.00
2019-03-13T22:30:34.225Z,6.00
2019-03-13T22:33:03.860Z,6.00
2019-03-13T22:35:33.483Z,6.00
2019-03-13T22:38:03.372Z,6.00
2019-03-13T22:40:32.989Z,6.00
2019-03-13T22:43:02.612Z,5.90
2019-03-13T22:45:32.229Z,5.90
2019-03-13T22:48:02.109Z,6.00
2019-03-13T22:50:31.733Z,5.90
2019-03-13T22:53:01.353Z,6.00
2019-03-13T22:55:30.979Z,6.00
2019-03-13T22:58:01.663Z,6.10
2019-03-13T23:00:47.296Z,6.10
2019-03-13T23:03:18.693Z,6.10
2019-03-13T23:05:48.481Z,6.10
2019-03-13T23:08:18.268Z,6.00
2019-03-13T23:10:47.877Z,6.10
2019-03-13T23:13:17.794Z,6.10
2019-03-13T23:15:47.591Z,6.10
2019-03-13T23:18:18.448Z,6.10
2019-03-13T23:20:48.733Z,6.20
2019-03-13T23:23:18.353Z,6.10
2019-03-13T23:25:48.007Z,6.10
2019-03-13T23:28:17.665Z,6.20
2019-03-13T23:30:47.288Z,6.20
2019-03-13T23:33:17.000Z,6.20
2019-03-13T23:35:46.621Z,6.20
2019-03-13T23:38:16.235Z,6.20
2019-03-13T23:40:45.852Z,6.20
2019-03-13T23:43:15.469Z,6.10
2019-03-13T23:45:45.093Z,6.10
2019-03-13T23:48:14.708Z,6.10
2019-03-13T23:50:44.338Z,6.00
2019-03-13T23:53:13.939Z,6.00
2019-03-13T23:55:43.865Z,6.00
2019-03-13T23:58:13.477Z,6.00
